Time;durP1;ratioP1;P1;durP2;ratioP2;P2;SDS_P1;SDS_P2;PMS_P1;PMS_P2;Temp;Humidity;BMP_temperature;BMP_pressure;BME280_temperature;BME280_humidity;BME280_pressure;Samples;Min_cycle;Max_cycle;Signal;HPM_P1;HPM_P2
2022/11/01 05:00:17;;;;;;;5.97;2.27;;;;;;;-1.94;100.00;101441.45;1798535;75;962915;-87
2022/11/01 05:03:05;;;;;;;2.80;1.67;;;;;;;-1.91;100.00;101455.01;1818464;78;22095;-89
2022/11/01 05:05:50;;;;;;;5.30;2.30;;;;;;;-1.89;100.00;101447.13;1776479;80;21436;-83
2022/11/01 05:08:36;;;;;;;6.75;2.60;;;;;;;-1.85;100.00;101457.02;1772921;79;20959;-88
2022/11/01 05:11:24;;;;;;;8.10;3.60;;;;;;;-1.80;100.00;101447.95;1776842;78;21022;-87
2022/11/01 05:14:08;;;;;;;11.12;5.03;;;;;;;-1.76;100.00;101450.08;1791500;79;21041;-89
2022/11/01 05:16:55;;;;;;;6.53;3.52;;;;;;;-1.70;100.00;101451.25;1758072;79;21118;-90
2022/11/01 05:19:40;;;;;;;3.95;2.58;;;;;;;-1.60;100.00;101457.74;1816087;77;21651;-90
2022/11/01 05:22:25;;;;;;;4.33;2.45;;;;;;;-1.52;100.00;101450.99;1804157;77;21025;-86
2022/11/01 05:25:10;;;;;;;5.78;3.02;;;;;;;-1.40;100.00;101449.59;1741532;80;21018;-88
2022/11/01 05:28:06;;;;;;;5.62;3.35;;;;;;;-1.28;100.00;101459.93;1767770;80;20974;-89
2022/11/01 05:30:51;;;;;;;6.85;1.95;;;;;;;-1.15;100.00;101460.17;1731954;81;21544;-91
2022/11/01 05:33:36;;;;;;;5.22;2.12;;;;;;;-1.01;100.00;101463.44;1780589;77;21024;-86
2022/11/01 05:36:20;;;;;;;6.12;2.72;;;;;;;-0.88;100.00;101456.95;1756787;79;21021;-88
2022/11/01 05:39:05;;;;;;;6.70;2.27;;;;;;;-0.74;100.00;101463.88;1791169;77;20979;-88
2022/11/01 05:41:50;;;;;;;3.95;2.00;;;;;;;-0.60;100.00;101468.98;1795389;77;20998;-87
2022/11/01 05:44:34;;;;;;;3.50;2.35;;;;;;;-0.46;100.00;101462.83;1773465;78;20975;-89
2022/11/01 06:21:03;;;;;;;8.78;2.90;;;;;;;1.90;100.00;101470.48;1880686;76;23256;-88
2022/11/01 06:23:49;;;;;;;7.47;2.72;;;;;;;2.07;100.00;101464.27;1790368;79;21017;-90
2022/11/01 06:26:34;;;;;;;8.35;3.08;;;;;;;2.24;100.00;101470.17;1812670;78;21017;-89
2022/11/01 06:29:19;;;;;;;7.53;3.58;;;;;;;2.39;100.00;101468.16;1761774;79;21046;-89
2022/11/01 06:32:04;;;;;;;4.78;2.45;;;;;;;2.50;100.00;101466.26;1832107;77;21936;-88
2022/11/01 06:34:50;;;;;;;7.55;3.17;;;;;;;2.62;100.00;101465.66;1822457;77;21005;-89
2022/11/01 06:37:34;;;;;;;8.53;2.75;;;;;;;2.71;100.00;101465.28;1838107;77;21042;-89
2022/11/01 06:40:19;;;;;;;6.60;3.25;;;;;;;2.84;100.00;101458.27;1839058;77;21561;-86
2022/11/01 06:43:05;;;;;;;8.18;3.22;;;;;;;2.95;100.00;101465.26;1833605;77;20960;-85
2022/11/01 06:45:49;;;;;;;7.17;2.60;;;;;;;3.11;100.00;101464.03;1836911;76;20990;-85
2022/11/01 06:48:34;;;;;;;7.10;3.02;;;;;;;3.28;100.00;101470.41;1777158;78;21062;-85
2022/11/01 06:51:18;;;;;;;8.48;3.42;;;;;;;3.40;100.00;101463.35;1777125;77;21097;-84
2022/11/01 06:54:03;;;;;;;6.95;2.87;;;;;;;3.50;100.00;101464.30;1802679;79;21006;-85
2022/11/01 06:56:48;;;;;;;5.03;2.55;;;;;;;3.63;100.00;101466.98;1802001;79;20963;-84
2022/11/01 06:59:33;;;;;;;13.05;3.05;;;;;;;3.74;100.00;101464.19;1769592;81;20978;-84
2022/11/01 07:02:17;;;;;;;7.53;3.33;;;;;;;3.84;100.00;101464.59;1785649;78;20975;-85
2022/11/01 07:05:02;;;;;;;5.50;2.80;;;;;;;3.94;100.00;101466.34;1786035;79;21003;-84
2022/11/01 07:07:48;;;;;;;9.50;3.60;;;;;;;4.08;100.00;101474.75;1755654;81;20971;-84
2022/11/01 07:10:35;;;;;;;5.67;3.15;;;;;;;4.25;100.00;101464.31;1759835;80;21397;-84
2022/11/01 07:13:20;;;;;;;6.40;2.62;;;;;;;4.37;100.00;101467.16;1760973;80;21028;-85
2022/11/01 07:16:05;;;;;;;12.78;3.60;;;;;;;4.46;100.00;101461.00;1847381;77;20964;-85
2022/11/01 07:18:51;;;;;;;8.43;3.22;;;;;;;4.50;100.00;101466.27;1835383;76;20964;-85
2022/11/01 07:21:36;;;;;;;8.15;3.55;;;;;;;4.54;100.00;101467.52;1751185;79;21473;-85
2022/11/01 07:24:21;;;;;;;5.50;3.27;;;;;;;4.64;100.00;101467.89;1785681;80;20947;-85
2022/11/01 07:27:06;;;;;;;8.15;3.72;;;;;;;4.73;100.00;101467.96;1839553;77;20981;-85
2022/11/01 07:29:51;;;;;;;8.28;3.75;;;;;;;4.89;100.00;101468.50;1840101;77;21021;-85
2022/11/01 07:32:35;;;;;;;7.78;3.17;;;;;;;5.05;100.00;101466.64;1838779;77;21384;-85
2022/11/01 07:35:20;;;;;;;7.17;3.27;;;;;;;5.23;100.00;101463.72;1834192;77;20948;-85
2022/11/01 07:38:05;;;;;;;6.92;3.30;;;;;;;5.44;100.00;101457.08;1830648;76;20994;-85
2022/11/01 07:40:52;;;;;;;7.17;3.15;;;;;;;5.58;100.00;101458.11;1813556;79;20970;-85
2022/11/01 07:43:37;;;;;;;7.92;3.30;;;;;;;5.66;100.00;101453.46;1813349;79;22002;-85
2022/11/01 07:46:22;;;;;;;7.55;3.27;;;;;;;5.76;100.00;101449.72;1834373;77;21006;-85
2022/11/01 07:49:06;;;;;;;5.90;2.45;;;;;;;5.88;100.00;101445.22;1845572;77;21438;-85
2022/11/01 07:51:51;;;;;;;8.88;2.90;;;;;;;5.96;100.00;101434.13;1832898;77;20963;-86
2022/11/01 07:54:37;;;;;;;5.87;3.05;;;;;;;6.08;100.00;101434.72;1790150;77;20980;-86
2022/11/01 07:57:23;;;;;;;6.45;2.98;;;;;;;6.14;100.00;101437.91;1802304;78;20990;-85
2022/11/01 08:00:09;;;;;;;9.20;3.40;;;;;;;6.19;100.00;101434.81;1816167;78;20961;-86
2022/11/01 08:03:04;;;;;;;10.03;3.12;;;;;;;6.24;100.00;101431.42;1811030;77;20966;-86
2022/11/01 08:05:50;;;;;;;7.53;3.65;;;;;;;6.28;100.00;101432.64;1790699;78;20966;-86
2022/11/01 08:08:35;;;;;;;5.00;2.77;;;;;;;6.36;100.00;101425.53;1785631;79;21032;-86
2022/11/01 08:11:21;;;;;;;8.78;2.50;;;;;;;6.41;100.00;101433.82;1815712;77;20986;-85
2022/11/01 08:14:08;;;;;;;3.58;1.85;;;;;;;6.53;100.00;101423.53;1784322;78;20975;-86
2022/11/01 08:16:59;;;;;;;5.28;2.00;;;;;;;6.68;100.00;101432.13;1817817;78;21051;-86
2022/11/01 08:19:40;;;;;;;5.40;2.27;;;;;;;6.83;100.00;101425.75;1800379;78;21011;-86
2022/11/01 08:22:24;;;;;;;3.95;1.87;;;;;;;6.97;100.00;101425.55;1823625;78;20972;-86
2022/11/01 08:25:09;;;;;;;2.75;1.52;;;;;;;7.15;100.00;101434.19;1806105;78;20959;-87
2022/11/01 08:27:54;;;;;;;4.22;1.72;;;;;;;7.31;100.00;101428.06;1808561;78;21026;-86
2022/11/01 08:30:39;;;;;;;7.08;1.85;;;;;;;7.49;100.00;101430.70;1805673;79;20971;-86
2022/11/01 08:33:24;;;;;;;3.30;1.07;;;;;;;7.67;100.00;101434.39;1749769;82;21492;-87
2022/11/01 08:36:09;;;;;;;4.80;1.07;;;;;;;7.83;100.00;101429.58;1769720;80;20998;-86
2022/11/01 08:38:54;;;;;;;1.98;1.47;;;;;;;7.97;100.00;101427.45;1775103;80;21508;-86
2022/11/01 08:41:38;;;;;;;2.52;1.22;;;;;;;8.03;100.00;101429.20;1745581;82;21062;-86
2022/11/01 08:44:24;;;;;;;3.80;1.22;;;;;;;8.11;100.00;101431.58;1789553;79;20994;-86
2022/11/01 08:47:10;;;;;;;2.08;1.05;;;;;;;8.16;100.00;101428.97;1833610;77;21331;-86
2022/11/01 08:49:54;;;;;;;2.25;1.40;;;;;;;8.24;100.00;101425.59;1768004;80;21493;-86
2022/11/01 08:52:39;;;;;;;2.95;1.00;;;;;;;8.32;100.00;101421.12;1744815;79;21034;-86
2022/11/01 08:55:24;;;;;;;2.72;0.93;;;;;;;8.39;100.00;101417.73;1737649;81;21014;-86
2022/11/01 08:58:09;;;;;;;2.12;1.35;;;;;;;8.44;100.00;101419.22;1758358;80;21038;-86
2022/11/01 09:00:53;;;;;;;6.12;1.07;;;;;;;8.51;100.00;101413.10;1784414;79;21285;-86
2022/11/01 09:03:39;;;;;;;2.40;1.35;;;;;;;8.55;100.00;101414.25;1820985;77;21411;-86
2022/11/01 09:06:24;;;;;;;2.33;1.30;;;;;;;8.60;100.00;101408.08;1817058;77;20966;-86
2022/11/01 09:09:10;;;;;;;4.20;1.35;;;;;;;8.65;100.00;101413.63;1765398;81;21077;-86
2022/11/01 09:11:55;;;;;;;7.15;2.08;;;;;;;8.68;100.00;101406.86;1745629;81;21006;-86
2022/11/01 09:14:41;;;;;;;3.77;1.67;;;;;;;8.74;100.00;101410.00;1774024;80;21699;-86
2022/11/01 09:17:25;;;;;;;3.35;1.50;;;;;;;8.85;100.00;101403.64;1770359;80;21069;-87
2022/11/01 09:20:11;;;;;;;2.17;0.90;;;;;;;8.94;100.00;101402.73;1746672;80;20997;-86
2022/11/01 09:22:56;;;;;;;2.33;1.27;;;;;;;9.04;100.00;101393.36;1772675;80;20972;-87
2022/11/01 09:25:42;;;;;;;1.72;1.02;;;;;;;9.11;100.00;101395.94;1778133;80;21508;-86
2022/11/01 09:28:28;;;;;;;2.47;0.93;;;;;;;9.16;100.00;101390.57;1743308;82;20995;-86
2022/11/01 09:31:13;;;;;;;4.25;1.07;;;;;;;9.17;100.00;101394.94;1798008;78;21493;-87
2022/11/01 09:33:57;;;;;;;3.92;1.42;;;;;;;9.21;100.00;101398.84;1774398;80;21533;-87
2022/11/01 09:36:43;;;;;;;6.08;1.37;;;;;;;9.19;100.00;101394.98;1768081;80;21042;-87
2022/11/01 09:39:29;;;;;;;1.67;0.88;;;;;;;9.20;100.00;101393.10;1743604;81;21104;-87
2022/11/01 09:42:31;;;;;;;5.70;1.32;;;;;;;9.25;100.00;101391.28;1769220;80;21043;-86
2022/11/01 09:45:21;;;;;;;2.05;1.07;;;;;;;9.33;100.00;101385.95;1774533;80;21015;-87
2022/11/01 09:48:06;;;;;;;5.95;1.47;;;;;;;9.37;100.00;101381.66;1795981;78;20991;-86
2022/11/01 09:50:51;;;;;;;2.65;1.30;;;;;;;9.46;100.00;101378.78;1738242;82;21059;-87
2022/11/01 09:53:36;;;;;;;3.58;1.32;;;;;;;9.54;100.00;101380.25;1735002;82;21022;-87
2022/11/01 09:56:25;;;;;;;2.87;1.00;;;;;;;9.63;100.00;101371.12;1714057;83;21903;-87
2022/11/01 09:59:21;;;;;;;2.42;0.98;;;;;;;9.67;100.00;101375.83;1743274;81;20991;-86
2022/11/01 14:23:33;;;;;;;4.45;1.30;;;;;;;7.82;100.00;101285.62;1807053;78;20978;-95
2022/11/01 14:26:23;;;;;;;4.10;1.45;;;;;;;7.61;100.00;101285.17;1783752;78;21057;-93
2022/11/01 14:29:09;;;;;;;5.25;1.95;;;;;;;7.47;100.00;101274.27;1775963;79;20989;-93
2022/11/01 14:31:53;;;;;;;3.95;1.67;;;;;;;7.31;100.00;101268.47;1751017;79;21468;-94
2022/11/01 14:34:38;;;;;;;4.78;1.80;;;;;;;7.16;100.00;101269.48;1781393;78;21010;-93
2022/11/01 14:37:25;;;;;;;5.65;1.70;;;;;;;7.02;100.00;101269.42;1782892;79;20951;-93
2022/11/01 14:40:32;;;;;;;3.92;1.52;;;;;;;6.87;100.00;101268.02;1779868;79;21038;-93
2022/11/01 14:43:46;;;;;;;2.77;1.10;;;;;;;6.73;100.00;101271.19;1724750;80;21038;-93
2022/11/01 14:46:31;;;;;;;5.42;1.55;;;;;;;6.57;100.00;101272.13;1769022;79;20998;-93
2022/11/01 14:49:21;;;;;;;4.83;1.67;;;;;;;6.43;100.00;101259.31;1731058;81;21076;-93
2022/11/01 14:52:34;;;;;;;8.65;2.30;;;;;;;6.33;100.00;101263.13;1755867;80;20978;-94
2022/11/01 14:55:22;;;;;;;5.42;2.25;;;;;;;6.23;100.00;101263.67;1756014;79;21056;-93
2022/11/01 14:58:21;;;;;;;4.45;1.80;;;;;;;6.14;100.00;101261.52;1778567;79;20978;-93
2022/11/01 15:01:12;;;;;;;7.10;2.00;;;;;;;6.04;100.00;101251.21;1779669;79;20986;-95
2022/11/01 15:03:58;;;;;;;5.75;2.05;;;;;;;5.95;100.00;101254.75;1772483;79;21033;-94
2022/11/01 15:06:43;;;;;;;5.12;2.20;;;;;;;5.88;100.00;101256.69;1773009;80;21029;-94
2022/11/01 15:09:30;;;;;;;7.08;2.33;;;;;;;5.78;100.00;101259.12;1780672;80;21033;-94
2022/11/01 15:12:14;;;;;;;14.87;5.15;;;;;;;5.63;100.00;101258.16;1775468;79;21041;-94
2022/11/01 15:15:00;;;;;;;13.40;5.08;;;;;;;5.50;100.00;101259.14;1730463;81;21002;-94
2022/11/01 15:17:55;;;;;;;24.60;9.58;;;;;;;5.42;100.00;101259.98;1736304;80;21413;-94
2022/11/01 15:20:44;;;;;;;27.60;7.12;;;;;;;5.36;100.00;101257.63;1741588;80;20978;-93
2022/11/01 15:23:36;;;;;;;12.25;5.75;;;;;;;5.31;100.00;101254.76;1759054;80;20977;-94
2022/11/01 15:26:24;;;;;;;13.95;5.70;;;;;;;5.25;100.00;101257.84;1782344;80;21018;-94
2022/11/01 15:29:18;;;;;;;15.90;5.60;;;;;;;5.21;100.00;101249.03;1768256;79;21053;-94
2022/11/01 15:32:02;;;;;;;16.82;5.42;;;;;;;5.16;100.00;101249.16;1739079;81;21096;-94
2022/11/01 15:34:52;;;;;;;13.62;4.67;;;;;;;5.13;100.00;101250.16;1792905;80;21461;-94
2022/11/01 15:37:37;;;;;;;8.05;3.55;;;;;;;5.09;100.00;101249.75;1789311;78;21590;-93
2022/11/01 15:40:32;;;;;;;9.13;3.95;;;;;;;5.02;100.00;101246.31;1740266;80;21130;-90
2022/11/01 15:43:21;;;;;;;9.78;4.40;;;;;;;4.96;100.00;101243.13;1696144;83;20988;-90
2022/11/01 15:46:10;;;;;;;6.53;3.08;;;;;;;4.92;100.00;101245.96;1723845;80;21087;-91
2022/11/01 15:48:56;;;;;;;9.70;2.62;;;;;;;4.89;100.00;101259.42;1683788;84;21034;-91
2022/11/01 15:51:49;;;;;;;5.90;2.22;;;;;;;4.87;100.00;101264.76;1661272;85;21024;-90
2022/11/01 15:55:09;;;;;;;3.58;2.20;;;;;;;4.85;100.00;101269.59;1656547;84;21051;-91
2022/11/01 15:58:06;;;;;;;6.72;2.72;;;;;;;4.82;100.00;101263.24;1694141;82;21006;-93
2022/11/01 16:00:54;;;;;;;6.47;2.58;;;;;;;4.79;100.00;101266.40;1698465;80;21029;-94
2022/11/01 18:13:58;;;;;;;5.42;1.70;;;;;;;3.18;100.00;101227.72;1755767;76;951987;-89
2022/11/01 18:16:49;;;;;;;5.78;2.55;;;;;;;3.20;100.00;101221.59;1755985;79;21029;-88
2022/11/01 18:19:39;;;;;;;9.30;2.12;;;;;;;3.25;100.00;101225.84;1743027;80;21003;-89
2022/11/01 18:22:44;;;;;;;8.63;1.85;;;;;;;3.27;100.00;101217.53;1685877;82;22046;-89
2022/11/01 18:25:42;;;;;;;5.10;1.60;;;;;;;3.29;100.00;101216.28;1716979;81;21041;-89
2022/11/01 18:28:29;;;;;;;5.10;1.10;;;;;;;3.31;100.00;101215.52;1740443;81;21081;-90
2022/11/01 18:31:28;;;;;;;4.10;1.25;;;;;;;3.33;100.00;101213.44;1716239;82;21541;-89
2022/11/01 18:34:21;;;;;;;3.52;1.15;;;;;;;3.35;100.00;101214.06;1704079;82;21001;-90
2022/11/01 18:37:41;;;;;;;5.85;1.57;;;;;;;3.35;100.00;101223.52;1689888;81;21753;-90
2022/11/01 18:40:31;;;;;;;2.95;0.88;;;;;;;3.36;100.00;101223.84;1693284;82;20966;-90
2022/11/01 18:43:17;;;;;;;2.47;1.72;;;;;;;3.34;100.00;101227.27;1693413;82;20995;-90
2022/11/01 18:46:27;;;;;;;4.17;1.32;;;;;;;3.33;100.00;101222.89;1706877;81;21570;-90
2022/11/01 18:49:13;;;;;;;5.40;1.60;;;;;;;3.32;100.00;101213.67;1690016;82;21077;-90
2022/11/01 18:51:57;;;;;;;3.25;1.82;;;;;;;3.33;100.00;101214.79;1703594;82;21074;-91
2022/11/01 18:54:48;;;;;;;3.60;1.98;;;;;;;3.32;100.00;101207.74;1719109;81;21101;-90
2022/11/01 18:57:33;;;;;;;6.03;1.98;;;;;;;3.33;100.00;101212.09;1705058;82;21525;-91
2022/11/01 19:00:18;;;;;;;6.40;1.90;;;;;;;3.33;100.00;101213.44;1678592;83;21046;-90
2022/11/01 19:03:08;;;;;;;6.33;1.70;;;;;;;3.33;100.00;101210.73;1692766;82;21169;-90
2022/11/01 19:05:53;;;;;;;4.70;1.80;;;;;;;3.35;100.00;101213.23;1645093;84;21517;-90
2022/11/01 19:08:39;;;;;;;5.00;1.80;;;;;;;3.35;100.00;101205.13;1651256;85;21055;-91
2022/11/01 19:11:28;;;;;;;5.33;1.60;;;;;;;3.33;100.00;101195.05;1679320;84;21031;-90
2022/11/01 19:14:18;;;;;;;3.65;1.20;;;;;;;3.32;100.00;101194.23;1661830;84;21079;-91
2022/11/01 19:17:04;;;;;;;4.55;1.37;;;;;;;3.35;100.00;101193.80;1661902;83;21110;-90
2022/11/01 19:19:55;;;;;;;4.90;1.62;;;;;;;3.36;100.00;101199.53;1661698;85;20982;-83
2022/11/01 19:22:42;;;;;;;4.80;1.67;;;;;;;3.36;100.00;101198.18;1680362;82;21213;-83
2022/11/01 19:25:31;;;;;;;6.25;1.47;;;;;;;3.33;100.00;101199.94;1659028;84;21110;-83
2022/11/01 19:28:33;;;;;;;3.65;1.60;;;;;;;3.28;100.00;101209.20;1656229;84;21160;-83
2022/11/01 19:31:34;;;;;;;3.62;1.17;;;;;;;3.23;100.00;101206.30;1672263;84;21016;-83
2022/11/01 19:34:22;;;;;;;6.37;1.80;;;;;;;3.22;100.00;101207.36;1668613;84;21474;-83
2022/11/01 19:37:27;;;;;;;6.03;1.45;;;;;;;3.21;100.00;101195.73;1663904;84;21082;-83
2022/11/01 19:40:26;;;;;;;2.40;1.30;;;;;;;3.21;100.00;101216.48;1650141;83;21130;-83
2022/11/01 19:43:12;;;;;;;5.67;1.87;;;;;;;3.18;100.00;101206.11;1616948;86;21882;-83
2022/11/01 19:46:00;;;;;;;1.57;1.37;;;;;;;3.16;100.00;101208.19;1659273;85;21069;-83
2022/11/01 19:48:45;;;;;;;3.25;1.62;;;;;;;3.16;100.00;101212.24;1649325;84;21532;-83
2022/11/01 19:51:29;;;;;;;8.48;2.15;;;;;;;3.15;100.00;101207.89;1668994;83;21140;-83
2022/11/01 19:54:14;;;;;;;3.45;1.20;;;;;;;3.12;100.00;101199.70;1718594;82;21432;-83
2022/11/01 19:56:59;;;;;;;3.85;1.55;;;;;;;3.10;100.00;101195.55;1655455;84;21085;-83
2022/11/01 19:59:44;;;;;;;3.08;1.27;;;;;;;3.07;100.00;101196.80;1683948;83;21029;-83
2022/11/01 20:02:29;;;;;;;2.80;1.52;;;;;;;3.04;100.00;101187.75;1682427;84;21023;-83
2022/11/01 20:05:33;;;;;;;4.65;1.67;;;;;;;3.03;100.00;101200.95;1679412;83;21160;-83
2022/11/01 20:08:33;;;;;;;2.92;1.90;;;;;;;3.01;100.00;101201.16;1705982;83;21067;-83
2022/11/01 20:11:18;;;;;;;3.22;2.08;;;;;;;2.97;100.00;101197.77;1710152;82;20999;-82
2022/11/01 20:14:03;;;;;;;8.30;3.33;;;;;;;2.91;100.00;101202.64;1701909;82;21014;-83
2022/11/01 20:16:49;;;;;;;8.15;3.77;;;;;;;2.87;100.00;101200.89;1701786;82;21087;-82
2022/11/01 20:19:35;;;;;;;13.98;4.25;;;;;;;2.84;100.00;101203.98;1714786;82;21021;-83
2022/11/01 20:22:20;;;;;;;12.25;3.47;;;;;;;2.81;100.00;101203.07;1705936;83;21046;-82
2022/11/01 20:25:07;;;;;;;5.58;3.00;;;;;;;2.79;100.00;101199.74;1694848;83;21568;-82
2022/11/01 20:27:52;;;;;;;4.87;2.58;;;;;;;2.78;100.00;101194.05;1695918;83;21140;-82
2022/11/01 20:30:37;;;;;;;4.30;2.20;;;;;;;2.73;100.00;101187.10;1710221;82;21021;-82
2022/11/01 20:33:23;;;;;;;7.03;2.77;;;;;;;2.69;100.00;101183.15;1702658;82;20995;-82
2022/11/01 20:36:08;;;;;;;5.87;2.77;;;;;;;2.64;100.00;101178.90;1679219;83;21010;-82
2022/11/01 20:38:53;;;;;;;5.55;2.75;;;;;;;2.59;100.00;101176.83;1632278;84;21221;-82
2022/11/01 20:41:38;;;;;;;6.05;2.87;;;;;;;2.54;100.00;101173.40;1653635;85;21090;-82
2022/11/01 20:44:23;;;;;;;7.40;3.02;;;;;;;2.51;100.00;101160.34;1655573;85;21034;-82
2022/11/01 20:47:08;;;;;;;6.80;2.90;;;;;;;2.49;100.00;101161.58;1654906;84;21511;-82
2022/11/01 20:49:53;;;;;;;8.98;3.15;;;;;;;2.45;100.00;101148.19;1657618;84;21109;-82
2022/11/01 20:52:38;;;;;;;5.42;2.80;;;;;;;2.39;100.00;101149.04;1670401;83;21107;-81
2022/11/01 20:55:22;;;;;;;11.70;3.83;;;;;;;2.31;100.00;101146.03;1643659;86;21011;-82
2022/11/01 20:58:08;;;;;;;8.73;2.67;;;;;;;2.26;100.00;101137.73;1667219;84;21001;-82
2022/11/01 21:00:53;;;;;;;9.85;3.17;;;;;;;2.20;100.00;101125.06;1641774;84;21104;-81
2022/11/01 21:03:39;;;;;;;6.42;2.92;;;;;;;2.17;100.00;101121.45;1659434;85;21041;-81
2022/11/01 21:06:27;;;;;;;9.78;4.33;;;;;;;2.13;100.00;101121.05;1681149;83;21027;-82
2022/11/01 21:09:34;;;;;;;10.03;4.80;;;;;;;2.12;100.00;101116.14;1680615;84;21009;-82
2022/11/01 21:12:46;;;;;;;8.75;3.77;;;;;;;2.11;100.00;101110.45;1678836;81;21062;-82
2022/11/01 21:15:36;;;;;;;9.73;3.30;;;;;;;2.12;100.00;101105.36;1664416;83;21544;-81
2022/11/01 21:18:42;;;;;;;9.00;4.08;;;;;;;2.11;100.00;101100.20;1702015;83;21151;-81
2022/11/01 21:21:32;;;;;;;5.78;3.02;;;;;;;2.10;100.00;101098.52;1696910;83;21010;-82
2022/11/01 21:24:38;;;;;;;7.50;2.92;;;;;;;2.08;100.00;101101.44;1658906;84;21204;-82
2022/11/01 21:27:27;;;;;;;9.50;3.52;;;;;;;2.06;100.00;101106.73;1667025;84;21018;-81
2022/11/01 21:30:16;;;;;;;6.30;3.05;;;;;;;2.03;100.00;101110.67;1681497;84;21085;-82
2022/11/01 21:33:01;;;;;;;7.97;3.25;;;;;;;2.01;100.00;101107.87;1649874;85;21025;-82
2022/11/01 21:35:47;;;;;;;8.83;3.55;;;;;;;1.99;100.00;101113.98;1674472;84;21656;-81
2022/11/01 21:38:39;;;;;;;13.70;4.05;;;;;;;1.94;100.00;101113.25;1699918;81;20939;-81
2022/11/01 21:41:43;;;;;;;9.58;3.40;;;;;;;1.90;100.00;101120.08;1716143;81;21465;-81
2022/11/01 21:44:40;;;;;;;10.18;3.10;;;;;;;1.86;100.00;101116.16;1710277;82;20998;-82
2022/11/01 21:47:29;;;;;;;9.65;3.58;;;;;;;1.83;100.00;101109.31;1710398;82;21006;-81
2022/11/01 21:50:14;;;;;;;9.70;3.92;;;;;;;1.81;100.00;101101.12;1702815;82;20913;-81
2022/11/01 21:53:00;;;;;;;9.35;3.83;;;;;;;1.78;100.00;101096.12;1679206;84;21049;-81
2022/11/01 21:55:45;;;;;;;10.75;3.67;;;;;;;1.78;100.00;101092.08;1659804;85;21002;-82
2022/11/01 21:58:29;;;;;;;9.85;4.05;;;;;;;1.76;100.00;101084.73;1691648;83;21432;-81
2022/11/01 22:01:14;;;;;;;11.75;4.22;;;;;;;1.75;100.00;101075.80;1688822;83;20962;-81
2022/11/01 22:03:59;;;;;;;13.58;5.35;;;;;;;1.73;100.00;101088.64;1681226;81;20995;-82
2022/11/01 22:06:44;;;;;;;12.25;4.35;;;;;;;1.72;100.00;101084.30;1704778;82;21026;-81
2022/11/01 22:09:29;;;;;;;12.45;4.10;;;;;;;1.74;100.00;101089.50;1714083;82;20986;-81
2022/11/01 22:12:14;;;;;;;15.38;4.47;;;;;;;1.75;100.00;101089.80;1698172;82;21066;-81
2022/11/01 22:14:59;;;;;;;12.28;3.35;;;;;;;1.72;100.00;101093.21;1653773;84;21031;-81
2022/11/01 22:17:45;;;;;;;7.47;3.02;;;;;;;1.69;100.00;101099.02;1641267;85;21532;-81
2022/11/01 22:20:30;;;;;;;7.53;3.27;;;;;;;1.64;100.00;101092.06;1674781;83;21013;-81
2022/11/01 22:23:15;;;;;;;5.20;2.77;;;;;;;1.59;100.00;101087.81;1674312;84;21084;-81
2022/11/01 22:26:00;;;;;;;7.83;2.98;;;;;;;1.55;100.00;101095.16;1648563;85;21039;-81
2022/11/01 22:28:46;;;;;;;5.90;2.72;;;;;;;1.51;100.00;101096.09;1667019;83;21469;-81
2022/11/01 22:31:32;;;;;;;7.33;2.75;;;;;;;1.44;100.00;101100.11;1651578;84;20983;-81
2022/11/01 22:34:17;;;;;;;5.90;2.95;;;;;;;1.39;100.00;101090.98;1660144;84;21068;-81
2022/11/01 22:37:12;;;;;;;4.58;2.50;;;;;;;1.35;100.00;101084.33;1714935;82;21588;-81
2022/11/01 22:39:57;;;;;;;5.97;3.02;;;;;;;1.29;100.00;101070.65;1679176;83;21054;-81
2022/11/01 22:42:43;;;;;;;7.72;3.15;;;;;;;1.26;100.00;101072.41;1688391;82;21044;-81
2022/11/01 22:45:28;;;;;;;10.05;2.45;;;;;;;1.19;100.00;101070.21;1646245;85;21030;-81
2022/11/01 22:48:17;;;;;;;6.65;2.67;;;;;;;1.09;100.00;101069.77;1686895;83;21041;-81
2022/11/01 22:51:02;;;;;;;6.15;3.08;;;;;;;1.00;100.00;101069.62;1656479;84;21021;-81
2022/11/01 22:53:46;;;;;;;6.22;3.00;;;;;;;0.95;100.00;101069.39;1685301;84;21015;-81
2022/11/01 22:56:31;;;;;;;6.20;2.90;;;;;;;0.91;100.00;101084.27;1695631;83;21135;-81
2022/11/01 22:59:15;;;;;;;7.25;3.55;;;;;;;0.90;100.00;101082.62;1708733;82;21009;-81
2022/11/01 23:02:29;;;;;;;7.30;3.50;;;;;;;0.88;100.00;101094.09;1658657;84;21084;-81
2022/11/01 23:05:24;;;;;;;10.08;4.03;;;;;;;0.85;100.00;101091.30;1673464;83;21056;-81
2022/11/01 23:08:32;;;;;;;8.03;4.00;;;;;;;0.83;100.00;101086.62;1677101;83;21041;-81
2022/11/01 23:14:34;;;;;;;9.65;3.35;;;;;;;0.82;100.00;101083.63;1668002;84;21070;-81
2022/11/01 23:14:36;;;;;;;3.37;2.20;;;;;;;0.81;100.00;101072.53;1662384;84;21009;-81
2022/11/01 23:17:25;;;;;;;6.05;2.83;;;;;;;0.77;100.00;101071.28;1660506;84;21022;-81
2022/11/01 23:20:10;;;;;;;5.10;2.42;;;;;;;0.74;100.00;101073.86;1659791;84;22395;-81
2022/11/01 23:22:54;;;;;;;4.92;2.60;;;;;;;0.68;100.00;101081.37;1710259;82;20998;-81
2022/11/01 23:25:39;;;;;;;4.33;2.50;;;;;;;0.65;100.00;101079.08;1685604;83;21502;-81
2022/11/01 23:28:25;;;;;;;6.40;2.85;;;;;;;0.63;100.00;101085.99;1670841;84;21079;-81
2022/11/01 23:31:11;;;;;;;9.43;2.70;;;;;;;0.59;100.00;101071.79;1636457;84;21014;-81
2022/11/01 23:33:56;;;;;;;5.00;2.70;;;;;;;0.55;100.00;101075.41;1693940;82;21117;-81
2022/11/01 23:36:41;;;;;;;5.40;2.47;;;;;;;0.50;100.00;101077.03;1684603;84;21037;-81
2022/11/01 23:39:30;;;;;;;8.58;3.33;;;;;;;0.47;100.00;101070.69;1694715;82;21041;-81
2022/11/01 23:42:18;;;;;;;5.97;2.65;;;;;;;0.44;100.00;101061.16;1693446;82;20933;-81
2022/11/01 23:45:05;;;;;;;4.85;2.58;;;;;;;0.37;100.00;101051.73;1686762;83;21026;-81
2022/11/01 23:47:49;;;;;;;7.35;3.30;;;;;;;0.32;100.00;101043.42;1660569;84;21080;-81
2022/11/01 23:50:34;;;;;;;6.72;2.98;;;;;;;0.29;100.00;101035.73;1715884;82;21038;-81
2022/11/01 23:53:24;;;;;;;5.08;3.00;;;;;;;0.29;100.00;101031.70;1712816;82;21129;-81
2022/11/01 23:56:10;;;;;;;7.90;3.75;;;;;;;0.26;100.00;101026.72;1714232;82;21058;-80
2022/11/01 23:59:02;;;;;;;8.48;3.62;;;;;;;0.23;100.00;101024.44;1641968;85;21093;-81
